sensor_id;sensor_type;location;lat;lon;timestamp;P1;durP1;ratioP1;P2;durP2;ratioP2
65202;SDS011;51788;45.124;38.966;2023-04-06T00:02:12;16.00;;;8.80;;
65202;SDS011;51788;45.124;38.966;2023-04-06T00:04:38;26.20;;;8.55;;
65202;SDS011;51788;45.124;38.966;2023-04-06T00:07:04;25.40;;;7.57;;
65202;SDS011;51788;45.124;38.966;2023-04-06T00:09:30;23.80;;;8.13;;
65202;SDS011;51788;45.124;38.966;2023-04-06T00:11:56;16.42;;;7.40;;
65202;SDS011;51788;45.124;38.966;2023-04-06T00:14:23;22.17;;;6.82;;
65202;SDS011;51788;45.124;38.966;2023-04-06T00:16:49;17.30;;;7.32;;
65202;SDS011;51788;45.124;38.966;2023-04-06T00:19:15;12.98;;;7.38;;
65202;SDS011;51788;45.124;38.966;2023-04-06T00:21:41;11.43;;;7.35;;
65202;SDS011;51788;45.124;38.966;2023-04-06T00:24:07;15.80;;;7.43;;
65202;SDS011;51788;45.124;38.966;2023-04-06T00:26:32;18.33;;;7.93;;
65202;SDS011;51788;45.124;38.966;2023-04-06T00:28:59;25.15;;;7.85;;
65202;SDS011;51788;45.124;38.966;2023-04-06T00:31:25;13.25;;;7.15;;
65202;SDS011;51788;45.124;38.966;2023-04-06T00:33:51;12.23;;;7.32;;
65202;SDS011;51788;45.124;38.966;2023-04-06T00:36:17;15.40;;;8.57;;
65202;SDS011;51788;45.124;38.966;2023-04-06T00:38:43;17.63;;;7.75;;
65202;SDS011;51788;45.124;38.966;2023-04-06T00:41:08;15.68;;;7.93;;
65202;SDS011;51788;45.124;38.966;2023-04-06T00:43:35;21.77;;;8.43;;
65202;SDS011;51788;45.124;38.966;2023-04-06T00:46:01;17.73;;;8.20;;
65202;SDS011;51788;45.124;38.966;2023-04-06T00:48:27;26.45;;;7.88;;
65202;SDS011;51788;45.124;38.966;2023-04-06T00:50:55;21.88;;;7.38;;
65202;SDS011;51788;45.124;38.966;2023-04-06T00:53:21;16.38;;;7.88;;
65202;SDS011;51788;45.124;38.966;2023-04-06T00:55:47;18.23;;;7.82;;
65202;SDS011;51788;45.124;38.966;2023-04-06T00:58:13;26.77;;;8.32;;
65202;SDS011;51788;45.124;38.966;2023-04-06T01:00:47;14.38;;;7.28;;
65202;SDS011;51788;45.124;38.966;2023-04-06T01:03:16;18.95;;;7.78;;
65202;SDS011;51788;45.124;38.966;2023-04-06T01:05:43;14.45;;;8.55;;
65202;SDS011;51788;45.124;38.966;2023-04-06T01:08:22;12.30;;;7.88;;
65202;SDS011;51788;45.124;38.966;2023-04-06T01:10:52;17.70;;;8.65;;
65202;SDS011;51788;45.124;38.966;2023-04-06T01:13:27;23.67;;;8.40;;
65202;SDS011;51788;45.124;38.966;2023-04-06T01:15:57;26.80;;;10.75;;
65202;SDS011;51788;45.124;38.966;2023-04-06T01:18:33;13.52;;;8.43;;
65202;SDS011;51788;45.124;38.966;2023-04-06T01:21:21;31.80;;;8.90;;
65202;SDS011;51788;45.124;38.966;2023-04-06T01:24:02;19.58;;;9.43;;
65202;SDS011;51788;45.124;38.966;2023-04-06T01:26:40;15.77;;;8.95;;
65202;SDS011;51788;45.124;38.966;2023-04-06T01:29:08;19.02;;;8.73;;
65202;SDS011;51788;45.124;38.966;2023-04-06T01:31:34;16.77;;;8.75;;
65202;SDS011;51788;45.124;38.966;2023-04-06T01:34:00;14.07;;;10.00;;
65202;SDS011;51788;45.124;38.966;2023-04-06T01:36:26;20.83;;;9.95;;
65202;SDS011;51788;45.124;38.966;2023-04-06T01:39:01;28.00;;;10.13;;
65202;SDS011;51788;45.124;38.966;2023-04-06T01:41:33;28.90;;;9.10;;
65202;SDS011;51788;45.124;38.966;2023-04-06T01:43:59;20.48;;;9.43;;
65202;SDS011;51788;45.124;38.966;2023-04-06T01:46:28;18.90;;;8.77;;
65202;SDS011;51788;45.124;38.966;2023-04-06T01:48:54;20.63;;;9.60;;
65202;SDS011;51788;45.124;38.966;2023-04-06T01:51:33;22.42;;;9.57;;
65202;SDS011;51788;45.124;38.966;2023-04-06T01:54:02;20.60;;;9.82;;
65202;SDS011;51788;45.124;38.966;2023-04-06T01:56:49;14.93;;;10.15;;
65202;SDS011;51788;45.124;38.966;2023-04-06T01:59:30;25.55;;;9.95;;
65202;SDS011;51788;45.124;38.966;2023-04-06T02:01:58;26.02;;;9.75;;
65202;SDS011;51788;45.124;38.966;2023-04-06T02:04:26;21.38;;;10.25;;
65202;SDS011;51788;45.124;38.966;2023-04-06T02:07:01;18.48;;;10.35;;
65202;SDS011;51788;45.124;38.966;2023-04-06T02:09:28;19.40;;;11.48;;
65202;SDS011;51788;45.124;38.966;2023-04-06T02:11:54;26.30;;;12.57;;
65202;SDS011;51788;45.124;38.966;2023-04-06T02:14:21;18.42;;;11.90;;
65202;SDS011;51788;45.124;38.966;2023-04-06T02:16:52;34.77;;;12.77;;
65202;SDS011;51788;45.124;38.966;2023-04-06T02:19:18;27.27;;;12.70;;
65202;SDS011;51788;45.124;38.966;2023-04-06T02:21:44;36.60;;;13.90;;
65202;SDS011;51788;45.124;38.966;2023-04-06T02:24:10;33.60;;;12.45;;
65202;SDS011;51788;45.124;38.966;2023-04-06T02:26:36;20.50;;;11.02;;
65202;SDS011;51788;45.124;38.966;2023-04-06T02:29:02;23.08;;;11.57;;
65202;SDS011;51788;45.124;38.966;2023-04-06T02:31:28;30.45;;;11.63;;
65202;SDS011;51788;45.124;38.966;2023-04-06T02:33:54;24.30;;;11.55;;
65202;SDS011;51788;45.124;38.966;2023-04-06T02:36:20;16.92;;;10.70;;
65202;SDS011;51788;45.124;38.966;2023-04-06T02:38:46;31.38;;;11.88;;
65202;SDS011;51788;45.124;38.966;2023-04-06T02:41:12;30.00;;;12.73;;
65202;SDS011;51788;45.124;38.966;2023-04-06T02:43:38;26.25;;;13.75;;
65202;SDS011;51788;45.124;38.966;2023-04-06T02:46:12;29.25;;;13.65;;
65202;SDS011;51788;45.124;38.966;2023-04-06T02:48:38;33.25;;;12.80;;
65202;SDS011;51788;45.124;38.966;2023-04-06T02:51:05;28.17;;;13.27;;
65202;SDS011;51788;45.124;38.966;2023-04-06T02:53:31;45.55;;;13.35;;
65202;SDS011;51788;45.124;38.966;2023-04-06T02:55:58;19.75;;;12.23;;
65202;SDS011;51788;45.124;38.966;2023-04-06T02:58:30;22.75;;;12.35;;
65202;SDS011;51788;45.124;38.966;2023-04-06T03:00:57;28.52;;;11.70;;
65202;SDS011;51788;45.124;38.966;2023-04-06T03:03:23;23.77;;;12.48;;
65202;SDS011;51788;45.124;38.966;2023-04-06T03:05:49;23.83;;;12.27;;
65202;SDS011;51788;45.124;38.966;2023-04-06T03:08:22;24.88;;;12.93;;
65202;SDS011;51788;45.124;38.966;2023-04-06T03:10:49;20.25;;;11.70;;
65202;SDS011;51788;45.124;38.966;2023-04-06T03:13:17;26.02;;;12.40;;
65202;SDS011;51788;45.124;38.966;2023-04-06T03:15:52;27.27;;;13.20;;
65202;SDS011;51788;45.124;38.966;2023-04-06T03:18:24;26.35;;;13.05;;
65202;SDS011;51788;45.124;38.966;2023-04-06T03:20:52;22.55;;;13.85;;
65202;SDS011;51788;45.124;38.966;2023-04-06T03:23:24;21.52;;;12.43;;
65202;SDS011;51788;45.124;38.966;2023-04-06T03:25:55;22.27;;;11.73;;
65202;SDS011;51788;45.124;38.966;2023-04-06T03:28:21;18.90;;;11.68;;
65202;SDS011;51788;45.124;38.966;2023-04-06T03:31:02;33.35;;;12.57;;
65202;SDS011;51788;45.124;38.966;2023-04-06T03:36:21;21.90;;;11.35;;
65202;SDS011;51788;45.124;38.966;2023-04-06T03:38:47;23.85;;;12.23;;
65202;SDS011;51788;45.124;38.966;2023-04-06T03:41:13;27.23;;;13.15;;
65202;SDS011;51788;45.124;38.966;2023-04-06T03:43:45;23.95;;;13.05;;
65202;SDS011;51788;45.124;38.966;2023-04-06T03:46:11;19.73;;;11.70;;
65202;SDS011;51788;45.124;38.966;2023-04-06T03:48:37;22.63;;;10.90;;
65202;SDS011;51788;45.124;38.966;2023-04-06T03:51:05;27.80;;;11.80;;
65202;SDS011;51788;45.124;38.966;2023-04-06T03:53:31;41.40;;;12.25;;
65202;SDS011;51788;45.124;38.966;2023-04-06T03:55:57;27.60;;;12.50;;
65202;SDS011;51788;45.124;38.966;2023-04-06T03:58:23;31.42;;;11.52;;
65202;SDS011;51788;45.124;38.966;2023-04-06T04:00:51;33.25;;;14.25;;
65202;SDS011;51788;45.124;38.966;2023-04-06T04:03:16;20.30;;;11.55;;
65202;SDS011;51788;45.124;38.966;2023-04-06T04:05:42;23.10;;;12.25;;
65202;SDS011;51788;45.124;38.966;2023-04-06T04:08:09;29.90;;;12.32;;
65202;SDS011;51788;45.124;38.966;2023-04-06T04:10:35;19.55;;;11.50;;
65202;SDS011;51788;45.124;38.966;2023-04-06T04:13:01;32.53;;;12.82;;
65202;SDS011;51788;45.124;38.966;2023-04-06T04:15:27;25.00;;;12.73;;
65202;SDS011;51788;45.124;38.966;2023-04-06T04:17:53;34.55;;;12.75;;
65202;SDS011;51788;45.124;38.966;2023-04-06T04:20:19;26.05;;;12.50;;
65202;SDS011;51788;45.124;38.966;2023-04-06T04:22:45;22.23;;;13.38;;
65202;SDS011;51788;45.124;38.966;2023-04-06T04:25:11;18.73;;;13.05;;
65202;SDS011;51788;45.124;38.966;2023-04-06T04:27:43;25.55;;;14.60;;
65202;SDS011;51788;45.124;38.966;2023-04-06T04:30:09;37.00;;;14.60;;
65202;SDS011;51788;45.124;38.966;2023-04-06T04:32:35;22.63;;;12.80;;
65202;SDS011;51788;45.124;38.966;2023-04-06T04:35:04;29.85;;;13.82;;
65202;SDS011;51788;45.124;38.966;2023-04-06T04:37:40;36.40;;;14.40;;
65202;SDS011;51788;45.124;38.966;2023-04-06T04:40:07;28.25;;;14.68;;
65202;SDS011;51788;45.124;38.966;2023-04-06T04:42:43;29.45;;;15.68;;
65202;SDS011;51788;45.124;38.966;2023-04-06T04:45:16;28.23;;;14.88;;
65202;SDS011;51788;45.124;38.966;2023-04-06T04:47:42;22.70;;;15.35;;
65202;SDS011;51788;45.124;38.966;2023-04-06T04:50:10;28.77;;;15.27;;
65202;SDS011;51788;45.124;38.966;2023-04-06T04:52:40;26.90;;;16.80;;
65202;SDS011;51788;45.124;38.966;2023-04-06T04:55:14;39.55;;;16.90;;
65202;SDS011;51788;45.124;38.966;2023-04-06T04:57:43;31.58;;;16.55;;
65202;SDS011;51788;45.124;38.966;2023-04-06T05:00:09;33.55;;;17.60;;
65202;SDS011;51788;45.124;38.966;2023-04-06T05:02:39;34.00;;;16.65;;
65202;SDS011;51788;45.124;38.966;2023-04-06T05:05:15;27.80;;;17.88;;
65202;SDS011;51788;45.124;38.966;2023-04-06T05:07:41;35.20;;;17.40;;
65202;SDS011;51788;45.124;38.966;2023-04-06T05:10:13;31.33;;;18.00;;
65202;SDS011;51788;45.124;38.966;2023-04-06T05:12:49;30.40;;;17.10;;
65202;SDS011;51788;45.124;38.966;2023-04-06T05:15:15;29.17;;;16.00;;
65202;SDS011;51788;45.124;38.966;2023-04-06T05:17:41;25.35;;;13.82;;
65202;SDS011;51788;45.124;38.966;2023-04-06T05:20:11;24.45;;;13.82;;
65202;SDS011;51788;45.124;38.966;2023-04-06T05:22:44;32.08;;;13.32;;
65202;SDS011;51788;45.124;38.966;2023-04-06T05:25:10;27.33;;;15.48;;
65202;SDS011;51788;45.124;38.966;2023-04-06T05:27:37;30.60;;;13.88;;
65202;SDS011;51788;45.124;38.966;2023-04-06T05:30:11;27.83;;;13.75;;
65202;SDS011;51788;45.124;38.966;2023-04-06T05:32:42;23.83;;;14.23;;
65202;SDS011;51788;45.124;38.966;2023-04-06T05:35:09;32.83;;;15.60;;
65202;SDS011;51788;45.124;38.966;2023-04-06T05:37:37;24.40;;;12.10;;
65202;SDS011;51788;45.124;38.966;2023-04-06T05:40:04;22.33;;;12.07;;
65202;SDS011;51788;45.124;38.966;2023-04-06T05:42:40;22.48;;;12.25;;
65202;SDS011;51788;45.124;38.966;2023-04-06T05:45:09;24.40;;;11.15;;
65202;SDS011;51788;45.124;38.966;2023-04-06T05:47:45;18.42;;;11.00;;
65202;SDS011;51788;45.124;38.966;2023-04-06T05:50:27;27.77;;;11.45;;
65202;SDS011;51788;45.124;38.966;2023-04-06T05:52:54;17.77;;;10.77;;
65202;SDS011;51788;45.124;38.966;2023-04-06T05:55:23;22.50;;;11.15;;
65202;SDS011;51788;45.124;38.966;2023-04-06T05:57:58;20.90;;;10.35;;
65202;SDS011;51788;45.124;38.966;2023-04-06T06:00:24;32.47;;;10.90;;
65202;SDS011;51788;45.124;38.966;2023-04-06T06:03:01;15.93;;;10.13;;
65202;SDS011;51788;45.124;38.966;2023-04-06T06:05:30;19.55;;;11.40;;
65202;SDS011;51788;45.124;38.966;2023-04-06T06:08:03;19.70;;;10.88;;
65202;SDS011;51788;45.124;38.966;2023-04-06T06:10:29;21.08;;;11.65;;
65202;SDS011;51788;45.124;38.966;2023-04-06T06:12:56;28.27;;;11.25;;
65202;SDS011;51788;45.124;38.966;2023-04-06T06:15:22;15.02;;;10.57;;
65202;SDS011;51788;45.124;38.966;2023-04-06T06:17:48;14.63;;;9.85;;
65202;SDS011;51788;45.124;38.966;2023-04-06T06:20:14;13.50;;;9.13;;
65202;SDS011;51788;45.124;38.966;2023-04-06T06:22:42;20.27;;;9.70;;
65202;SDS011;51788;45.124;38.966;2023-04-06T06:25:12;11.00;;;8.63;;
65202;SDS011;51788;45.124;38.966;2023-04-06T06:27:38;16.02;;;8.27;;
65202;SDS011;51788;45.124;38.966;2023-04-06T06:30:05;13.82;;;9.10;;
65202;SDS011;51788;45.124;38.966;2023-04-06T06:32:32;11.65;;;9.45;;
65202;SDS011;51788;45.124;38.966;2023-04-06T06:34:59;24.33;;;10.30;;
65202;SDS011;51788;45.124;38.966;2023-04-06T06:37:27;20.88;;;9.95;;
65202;SDS011;51788;45.124;38.966;2023-04-06T06:39:53;26.90;;;14.23;;
65202;SDS011;51788;45.124;38.966;2023-04-06T06:42:20;29.35;;;14.90;;
65202;SDS011;51788;45.124;38.966;2023-04-06T06:45:06;30.08;;;16.25;;
65202;SDS011;51788;45.124;38.966;2023-04-06T06:47:33;23.55;;;15.43;;
65202;SDS011;51788;45.124;38.966;2023-04-06T06:49:59;34.75;;;16.05;;
65202;SDS011;51788;45.124;38.966;2023-04-06T06:52:25;27.02;;;16.30;;
65202;SDS011;51788;45.124;38.966;2023-04-06T06:54:51;32.45;;;16.17;;
65202;SDS011;51788;45.124;38.966;2023-04-06T06:57:18;29.63;;;16.48;;
65202;SDS011;51788;45.124;38.966;2023-04-06T06:59:45;34.75;;;16.17;;
65202;SDS011;51788;45.124;38.966;2023-04-06T07:02:12;30.55;;;16.58;;
65202;SDS011;51788;45.124;38.966;2023-04-06T07:04:37;36.15;;;17.10;;
65202;SDS011;51788;45.124;38.966;2023-04-06T07:07:04;22.00;;;15.43;;
65202;SDS011;51788;45.124;38.966;2023-04-06T07:09:29;27.58;;;17.00;;
65202;SDS011;51788;45.124;38.966;2023-04-06T07:11:55;26.45;;;16.70;;
65202;SDS011;51788;45.124;38.966;2023-04-06T07:14:22;19.98;;;13.15;;
65202;SDS011;51788;45.124;38.966;2023-04-06T07:16:48;24.73;;;11.73;;
65202;SDS011;51788;45.124;38.966;2023-04-06T07:19:15;18.58;;;10.27;;
65202;SDS011;51788;45.124;38.966;2023-04-06T07:21:41;14.23;;;8.77;;
65202;SDS011;51788;45.124;38.966;2023-04-06T07:24:07;9.05;;;7.53;;
65202;SDS011;51788;45.124;38.966;2023-04-06T07:26:33;12.02;;;7.28;;
65202;SDS011;51788;45.124;38.966;2023-04-06T07:29:00;7.50;;;5.50;;
65202;SDS011;51788;45.124;38.966;2023-04-06T07:31:26;7.55;;;4.70;;
65202;SDS011;51788;45.124;38.966;2023-04-06T07:33:53;8.25;;;5.07;;
65202;SDS011;51788;45.124;38.966;2023-04-06T07:36:19;11.45;;;5.55;;
65202;SDS011;51788;45.124;38.966;2023-04-06T07:38:45;7.45;;;5.40;;
65202;SDS011;51788;45.124;38.966;2023-04-06T07:41:12;7.55;;;5.25;;
65202;SDS011;51788;45.124;38.966;2023-04-06T07:43:38;8.52;;;4.90;;
65202;SDS011;51788;45.124;38.966;2023-04-06T07:46:06;6.13;;;4.53;;
65202;SDS011;51788;45.124;38.966;2023-04-06T07:48:32;7.28;;;4.03;;
65202;SDS011;51788;45.124;38.966;2023-04-06T07:51:04;6.18;;;4.20;;
65202;SDS011;51788;45.124;38.966;2023-04-06T07:53:37;3.53;;;3.20;;
65202;SDS011;51788;45.124;38.966;2023-04-06T07:56:03;6.22;;;4.18;;
65202;SDS011;51788;45.124;38.966;2023-04-06T07:58:29;7.53;;;3.85;;
65202;SDS011;51788;45.124;38.966;2023-04-06T08:00:55;9.25;;;4.20;;
65202;SDS011;51788;45.124;38.966;2023-04-06T08:03:23;5.70;;;4.75;;
65202;SDS011;51788;45.124;38.966;2023-04-06T08:05:51;6.45;;;4.85;;
65202;SDS011;51788;45.124;38.966;2023-04-06T08:08:18;9.32;;;4.88;;
65202;SDS011;51788;45.124;38.966;2023-04-06T08:10:44;6.65;;;4.05;;
65202;SDS011;51788;45.124;38.966;2023-04-06T08:13:10;6.68;;;4.25;;
65202;SDS011;51788;45.124;38.966;2023-04-06T08:15:36;4.60;;;4.15;;
65202;SDS011;51788;45.124;38.966;2023-04-06T08:18:02;5.53;;;4.43;;
65202;SDS011;51788;45.124;38.966;2023-04-06T08:20:28;8.27;;;5.30;;
65202;SDS011;51788;45.124;38.966;2023-04-06T08:22:54;8.38;;;4.95;;
65202;SDS011;51788;45.124;38.966;2023-04-06T08:25:20;7.40;;;4.18;;
65202;SDS011;51788;45.124;38.966;2023-04-06T08:27:46;6.97;;;4.65;;
65202;SDS011;51788;45.124;38.966;2023-04-06T08:30:12;3.22;;;2.92;;
65202;SDS011;51788;45.124;38.966;2023-04-06T08:32:40;3.88;;;3.28;;
65202;SDS011;51788;45.124;38.966;2023-04-06T08:35:06;13.40;;;5.70;;
65202;SDS011;51788;45.124;38.966;2023-04-06T08:37:33;5.05;;;4.45;;
65202;SDS011;51788;45.124;38.966;2023-04-06T08:39:59;5.50;;;4.90;;
65202;SDS011;51788;45.124;38.966;2023-04-06T08:42:25;4.75;;;3.60;;
65202;SDS011;51788;45.124;38.966;2023-04-06T08:44:57;9.25;;;5.57;;
65202;SDS011;51788;45.124;38.966;2023-04-06T08:47:23;5.75;;;4.75;;
65202;SDS011;51788;45.124;38.966;2023-04-06T08:49:49;6.90;;;4.00;;
65202;SDS011;51788;45.124;38.966;2023-04-06T08:52:17;11.40;;;5.05;;
65202;SDS011;51788;45.124;38.966;2023-04-06T08:54:44;7.35;;;5.32;;
65202;SDS011;51788;45.124;38.966;2023-04-06T08:57:10;7.88;;;4.78;;
65202;SDS011;51788;45.124;38.966;2023-04-06T08:59:37;8.88;;;4.65;;
65202;SDS011;51788;45.124;38.966;2023-04-06T09:02:04;11.80;;;6.10;;
65202;SDS011;51788;45.124;38.966;2023-04-06T09:04:33;10.50;;;5.47;;
65202;SDS011;51788;45.124;38.966;2023-04-06T09:07:01;7.03;;;6.05;;
65202;SDS011;51788;45.124;38.966;2023-04-06T09:09:27;8.82;;;5.03;;
65202;SDS011;51788;45.124;38.966;2023-04-06T09:11:53;10.65;;;5.47;;
65202;SDS011;51788;45.124;38.966;2023-04-06T09:14:33;8.18;;;5.72;;
65202;SDS011;51788;45.124;38.966;2023-04-06T09:17:03;12.07;;;6.47;;
65202;SDS011;51788;45.124;38.966;2023-04-06T09:19:30;9.50;;;6.38;;
65202;SDS011;51788;45.124;38.966;2023-04-06T09:22:05;8.75;;;5.25;;
65202;SDS011;51788;45.124;38.966;2023-04-06T09:24:41;9.30;;;5.15;;
65202;SDS011;51788;45.124;38.966;2023-04-06T09:27:09;7.78;;;5.63;;
65202;SDS011;51788;45.124;38.966;2023-04-06T09:29:35;5.88;;;4.82;;
65202;SDS011;51788;45.124;38.966;2023-04-06T09:32:05;12.30;;;5.80;;
65202;SDS011;51788;45.124;38.966;2023-04-06T09:34:37;12.45;;;6.50;;
65202;SDS011;51788;45.124;38.966;2023-04-06T09:37:14;6.63;;;5.90;;
65202;SDS011;51788;45.124;38.966;2023-04-06T09:39:40;8.38;;;5.60;;
65202;SDS011;51788;45.124;38.966;2023-04-06T09:42:06;14.20;;;4.78;;
65202;SDS011;51788;45.124;38.966;2023-04-06T09:44:32;10.40;;;5.38;;
65202;SDS011;51788;45.124;38.966;2023-04-06T09:46:58;9.05;;;5.20;;
65202;SDS011;51788;45.124;38.966;2023-04-06T09:49:24;5.15;;;4.13;;
65202;SDS011;51788;45.124;38.966;2023-04-06T09:51:57;4.28;;;3.40;;
65202;SDS011;51788;45.124;38.966;2023-04-06T09:54:32;4.25;;;3.60;;
65202;SDS011;51788;45.124;38.966;2023-04-06T09:57:11;8.88;;;5.15;;
65202;SDS011;51788;45.124;38.966;2023-04-06T09:59:44;4.82;;;3.85;;
65202;SDS011;51788;45.124;38.966;2023-04-06T10:02:23;4.30;;;3.78;;
65202;SDS011;51788;45.124;38.966;2023-04-06T10:04:54;5.78;;;5.18;;
65202;SDS011;51788;45.124;38.966;2023-04-06T10:07:24;5.28;;;4.78;;
65202;SDS011;51788;45.124;38.966;2023-04-06T10:09:52;5.70;;;4.70;;
65202;SDS011;51788;45.124;38.966;2023-04-06T10:12:20;6.25;;;4.72;;
65202;SDS011;51788;45.124;38.966;2023-04-06T10:14:46;3.33;;;3.00;;
65202;SDS011;51788;45.124;38.966;2023-04-06T10:17:12;3.80;;;2.92;;
65202;SDS011;51788;45.124;38.966;2023-04-06T10:19:44;5.13;;;4.70;;
65202;SDS011;51788;45.124;38.966;2023-04-06T10:22:22;3.22;;;2.92;;
65202;SDS011;51788;45.124;38.966;2023-04-06T10:24:54;5.47;;;4.97;;
65202;SDS011;51788;45.124;38.966;2023-04-06T10:27:29;5.30;;;4.20;;
65202;SDS011;51788;45.124;38.966;2023-04-06T10:30:01;11.95;;;5.25;;
65202;SDS011;51788;45.124;38.966;2023-04-06T10:32:35;4.13;;;3.72;;
65202;SDS011;51788;45.124;38.966;2023-04-06T10:35:06;5.50;;;4.72;;
65202;SDS011;51788;45.124;38.966;2023-04-06T10:37:46;5.80;;;5.30;;
65202;SDS011;51788;45.124;38.966;2023-04-06T10:40:58;6.78;;;4.47;;
65202;SDS011;51788;45.124;38.966;2023-04-06T10:43:17;8.77;;;5.55;;
65202;SDS011;51788;45.124;38.966;2023-04-06T10:45:45;6.88;;;4.43;;
65202;SDS011;51788;45.124;38.966;2023-04-06T10:48:21;3.95;;;3.28;;
65202;SDS011;51788;45.124;38.966;2023-04-06T10:50:48;4.20;;;3.90;;
65202;SDS011;51788;45.124;38.966;2023-04-06T10:53:25;5.82;;;3.83;;
65202;SDS011;51788;45.124;38.966;2023-04-06T10:55:56;6.30;;;3.70;;
65202;SDS011;51788;45.124;38.966;2023-04-06T10:58:26;3.60;;;3.30;;
65202;SDS011;51788;45.124;38.966;2023-04-06T11:00:53;3.03;;;2.85;;
65202;SDS011;51788;45.124;38.966;2023-04-06T11:03:20;3.38;;;2.80;;
65202;SDS011;51788;45.124;38.966;2023-04-06T11:05:46;3.15;;;2.95;;
65202;SDS011;51788;45.124;38.966;2023-04-06T11:08:24;4.25;;;3.75;;
65202;SDS011;51788;45.124;38.966;2023-04-06T11:10:51;3.65;;;3.35;;
65202;SDS011;51788;45.124;38.966;2023-04-06T11:13:17;3.65;;;3.35;;
65202;SDS011;51788;45.124;38.966;2023-04-06T11:15:43;8.05;;;4.40;;
65202;SDS011;51788;45.124;38.966;2023-04-06T11:18:09;2.95;;;2.70;;
65202;SDS011;51788;45.124;38.966;2023-04-06T11:20:36;4.22;;;3.92;;
65202;SDS011;51788;45.124;38.966;2023-04-06T11:23:02;3.88;;;3.42;;
65202;SDS011;51788;45.124;38.966;2023-04-06T11:25:29;5.07;;;3.30;;
65202;SDS011;51788;45.124;38.966;2023-04-06T11:27:57;6.60;;;3.63;;
65202;SDS011;51788;45.124;38.966;2023-04-06T11:30:23;4.90;;;3.35;;
65202;SDS011;51788;45.124;38.966;2023-04-06T11:32:50;6.93;;;3.30;;
65202;SDS011;51788;45.124;38.966;2023-04-06T11:35:20;4.88;;;3.30;;
65202;SDS011;51788;45.124;38.966;2023-04-06T11:37:49;3.50;;;3.20;;
65202;SDS011;51788;45.124;38.966;2023-04-06T11:40:16;3.83;;;3.47;;
65202;SDS011;51788;45.124;38.966;2023-04-06T11:42:52;6.53;;;3.75;;
65202;SDS011;51788;45.124;38.966;2023-04-06T11:45:18;3.53;;;3.20;;
65202;SDS011;51788;45.124;38.966;2023-04-06T11:47:44;6.40;;;4.05;;
65202;SDS011;51788;45.124;38.966;2023-04-06T11:50:11;5.10;;;4.32;;
65202;SDS011;51788;45.124;38.966;2023-04-06T11:52:41;4.15;;;3.83;;
65202;SDS011;51788;45.124;38.966;2023-04-06T11:55:13;4.30;;;3.88;;
65202;SDS011;51788;45.124;38.966;2023-04-06T11:57:41;6.35;;;3.78;;
65202;SDS011;51788;45.124;38.966;2023-04-06T12:00:08;3.13;;;2.92;;
65202;SDS011;51788;45.124;38.966;2023-04-06T12:02:35;4.93;;;4.50;;
65202;SDS011;51788;45.124;38.966;2023-04-06T12:05:02;4.80;;;4.35;;
65202;SDS011;51788;45.124;38.966;2023-04-06T12:07:30;4.25;;;3.97;;
65202;SDS011;51788;45.124;38.966;2023-04-06T12:09:57;3.92;;;3.63;;
65202;SDS011;51788;45.124;38.966;2023-04-06T12:12:24;9.23;;;4.32;;
65202;SDS011;51788;45.124;38.966;2023-04-06T12:14:50;3.30;;;2.88;;
65202;SDS011;51788;45.124;38.966;2023-04-06T12:17:17;3.58;;;3.38;;
65202;SDS011;51788;45.124;38.966;2023-04-06T12:19:44;3.67;;;3.33;;
65202;SDS011;51788;45.124;38.966;2023-04-06T12:22:10;5.32;;;3.03;;
65202;SDS011;51788;45.124;38.966;2023-04-06T12:24:36;8.07;;;3.85;;
65202;SDS011;51788;45.124;38.966;2023-04-06T12:27:02;3.97;;;3.10;;
65202;SDS011;51788;45.124;38.966;2023-04-06T12:29:28;2.80;;;2.58;;
65202;SDS011;51788;45.124;38.966;2023-04-06T12:31:54;4.30;;;4.00;;
65202;SDS011;51788;45.124;38.966;2023-04-06T12:34:20;2.55;;;2.35;;
65202;SDS011;51788;45.124;38.966;2023-04-06T12:36:46;6.25;;;3.55;;
65202;SDS011;51788;45.124;38.966;2023-04-06T12:39:12;4.95;;;3.65;;
65202;SDS011;51788;45.124;38.966;2023-04-06T12:41:38;5.93;;;4.00;;
65202;SDS011;51788;45.124;38.966;2023-04-06T12:44:07;2.88;;;2.67;;
65202;SDS011;51788;45.124;38.966;2023-04-06T12:46:33;5.47;;;3.03;;
65202;SDS011;51788;45.124;38.966;2023-04-06T12:49:00;6.63;;;3.58;;
65202;SDS011;51788;45.124;38.966;2023-04-06T12:51:28;14.63;;;4.32;;
65202;SDS011;51788;45.124;38.966;2023-04-06T12:53:55;6.28;;;3.55;;
65202;SDS011;51788;45.124;38.966;2023-04-06T12:56:20;5.30;;;3.13;;
65202;SDS011;51788;45.124;38.966;2023-04-06T12:58:47;2.58;;;2.40;;
65202;SDS011;51788;45.124;38.966;2023-04-06T13:01:15;7.88;;;3.70;;
65202;SDS011;51788;45.124;38.966;2023-04-06T13:03:41;6.82;;;4.00;;
65202;SDS011;51788;45.124;38.966;2023-04-06T13:06:07;3.58;;;3.10;;
65202;SDS011;51788;45.124;38.966;2023-04-06T13:08:34;3.25;;;2.97;;
65202;SDS011;51788;45.124;38.966;2023-04-06T13:11:01;4.43;;;3.08;;
65202;SDS011;51788;45.124;38.966;2023-04-06T13:13:27;3.05;;;2.85;;
65202;SDS011;51788;45.124;38.966;2023-04-06T13:15:58;5.18;;;3.38;;
65202;SDS011;51788;45.124;38.966;2023-04-06T13:18:29;3.63;;;3.25;;
65202;SDS011;51788;45.124;38.966;2023-04-06T13:20:56;3.53;;;2.83;;
65202;SDS011;51788;45.124;38.966;2023-04-06T13:23:23;7.90;;;3.25;;
65202;SDS011;51788;45.124;38.966;2023-04-06T13:26:05;3.97;;;3.58;;
65202;SDS011;51788;45.124;38.966;2023-04-06T13:28:32;6.00;;;3.97;;
65202;SDS011;51788;45.124;38.966;2023-04-06T13:31:02;7.57;;;4.53;;
65202;SDS011;51788;45.124;38.966;2023-04-06T13:33:29;4.68;;;4.25;;
65202;SDS011;51788;45.124;38.966;2023-04-06T13:35:56;6.20;;;5.03;;
65202;SDS011;51788;45.124;38.966;2023-04-06T13:38:22;4.90;;;4.50;;
65202;SDS011;51788;45.124;38.966;2023-04-06T13:40:51;7.40;;;5.18;;
65202;SDS011;51788;45.124;38.966;2023-04-06T13:43:18;10.10;;;6.22;;
65202;SDS011;51788;45.124;38.966;2023-04-06T13:45:52;7.10;;;6.00;;
65202;SDS011;51788;45.124;38.966;2023-04-06T13:48:20;6.60;;;5.03;;
65202;SDS011;51788;45.124;38.966;2023-04-06T13:50:46;3.60;;;3.30;;
65202;SDS011;51788;45.124;38.966;2023-04-06T13:53:12;5.22;;;4.72;;
65202;SDS011;51788;45.124;38.966;2023-04-06T13:55:39;6.22;;;4.20;;
65202;SDS011;51788;45.124;38.966;2023-04-06T13:58:05;4.53;;;4.15;;
65202;SDS011;51788;45.124;38.966;2023-04-06T14:00:31;6.30;;;4.97;;
65202;SDS011;51788;45.124;38.966;2023-04-06T14:02:57;5.55;;;3.47;;
65202;SDS011;51788;45.124;38.966;2023-04-06T14:05:23;4.25;;;3.85;;
65202;SDS011;51788;45.124;38.966;2023-04-06T14:07:49;4.05;;;3.60;;
65202;SDS011;51788;45.124;38.966;2023-04-06T14:10:15;3.85;;;3.55;;
65202;SDS011;51788;45.124;38.966;2023-04-06T14:12:42;4.50;;;4.03;;
65202;SDS011;51788;45.124;38.966;2023-04-06T14:15:11;7.50;;;4.78;;
65202;SDS011;51788;45.124;38.966;2023-04-06T14:17:38;9.70;;;5.13;;
65202;SDS011;51788;45.124;38.966;2023-04-06T14:20:05;6.38;;;4.18;;
65202;SDS011;51788;45.124;38.966;2023-04-06T14:22:31;7.55;;;4.35;;
65202;SDS011;51788;45.124;38.966;2023-04-06T14:24:58;7.18;;;5.20;;
65202;SDS011;51788;45.124;38.966;2023-04-06T14:27:24;4.50;;;4.10;;
65202;SDS011;51788;45.124;38.966;2023-04-06T14:29:50;7.38;;;4.13;;
65202;SDS011;51788;45.124;38.966;2023-04-06T14:32:16;6.50;;;4.97;;
65202;SDS011;51788;45.124;38.966;2023-04-06T14:34:42;5.40;;;4.70;;